Big Flats, Wisconsin
Current Conditions -  °F | °C
As of 4:58 PM on Friday 31 Oct 2014 (Local Time) from KVOK Reporting Station
Few Clouds Few Clouds  
Wind Chill: 31°   Ceiling: Unl
Heat Index: 38°   Visibility: 10mi
Dew Point: 18°   Wind: 10mph
Humidity: 44%   Direction: 20°NNE
Pressure: 30.42"   Gusts: 21mph
Location:  44.0724°N, 89.9031°W
Report Text: KVOK 312158Z AUTO 02009G18KT 10SM FEW050 04/M08 A3042 RMK AO2 SLP314 T00351079
Loading
Personal Weather Stations






























Interactive Weather Map
Tropical Storm Tracking
New forecast layout! Learn more

10-Day Weather Forecast

Advertisements
Track Severe Weather on mobile